Bruno, Arkansas
Current Conditions -  °F | °C
As of 9:15 AM on Wednesday 26 Nov 2014 (Local Time) from KFLP Reporting Station
Broken Clouds Broken Clouds  
Wind Chill: 25°   Ceiling: 4900
Heat Index: 34°   Visibility: 10mi
Dew Point: 25°   Wind: 12mph
Humidity: 70%   Direction: 360°N
Pressure: 30.01"   Gusts: NA
Location:  36.1171°N, 92.7603°W
Report Text: KFLP 261515Z AUTO 36010KT 10SM BKN049 BKN065 01/M04 A3001 RMK AO1
Loading
Personal Weather Stations






























Interactive Weather Map New forecast layout! Learn more

10-Day Weather Forecast

Advertisements
Track Severe Weather on mobile